sensor_id;sensor_type;location;lat;lon;timestamp;P1;durP1;ratioP1;P2;durP2;ratioP2
6378;SDS011;3222;48.858;10.128;2023-05-02T00:01:49;9.90;;;4.83;;
6378;SDS011;3222;48.858;10.128;2023-05-02T00:04:15;9.73;;;5.00;;
6378;SDS011;3222;48.858;10.128;2023-05-02T00:06:41;5.23;;;4.73;;
6378;SDS011;3222;48.858;10.128;2023-05-02T00:09:07;5.37;;;4.30;;
6378;SDS011;3222;48.858;10.128;2023-05-02T00:11:33;11.23;;;4.90;;
6378;SDS011;3222;48.858;10.128;2023-05-02T00:13:58;11.90;;;4.80;;
6378;SDS011;3222;48.858;10.128;2023-05-02T00:16:24;8.17;;;4.87;;
6378;SDS011;3222;48.858;10.128;2023-05-02T00:18:50;5.50;;;4.80;;
6378;SDS011;3222;48.858;10.128;2023-05-02T00:21:15;5.27;;;4.77;;
6378;SDS011;3222;48.858;10.128;2023-05-02T00:23:41;7.17;;;5.27;;
6378;SDS011;3222;48.858;10.128;2023-05-02T00:26:08;6.87;;;5.07;;
6378;SDS011;3222;48.858;10.128;2023-05-02T00:28:34;5.80;;;4.67;;
6378;SDS011;3222;48.858;10.128;2023-05-02T00:31:00;7.30;;;5.37;;
6378;SDS011;3222;48.858;10.128;2023-05-02T00:33:26;4.80;;;4.20;;
6378;SDS011;3222;48.858;10.128;2023-05-02T00:35:52;9.87;;;4.80;;
6378;SDS011;3222;48.858;10.128;2023-05-02T00:38:18;9.07;;;4.60;;
6378;SDS011;3222;48.858;10.128;2023-05-02T00:40:44;5.97;;;4.60;;
6378;SDS011;3222;48.858;10.128;2023-05-02T00:43:11;8.67;;;5.17;;
6378;SDS011;3222;48.858;10.128;2023-05-02T00:45:38;8.23;;;4.40;;
6378;SDS011;3222;48.858;10.128;2023-05-02T00:48:08;5.03;;;4.53;;
6378;SDS011;3222;48.858;10.128;2023-05-02T00:50:37;9.53;;;4.90;;
6378;SDS011;3222;48.858;10.128;2023-05-02T00:53:05;5.47;;;4.73;;
6378;SDS011;3222;48.858;10.128;2023-05-02T00:55:32;11.30;;;6.77;;
6378;SDS011;3222;48.858;10.128;2023-05-02T00:57:59;8.27;;;4.93;;
6378;SDS011;3222;48.858;10.128;2023-05-02T01:00:28;6.60;;;4.80;;
6378;SDS011;3222;48.858;10.128;2023-05-02T01:03:20;8.67;;;5.10;;
6378;SDS011;3222;48.858;10.128;2023-05-02T01:09:08;12.13;;;5.17;;
6378;SDS011;3222;48.858;10.128;2023-05-02T01:14:52;7.03;;;5.00;;
6378;SDS011;3222;48.858;10.128;2023-05-02T01:17:22;8.60;;;4.80;;
6378;SDS011;3222;48.858;10.128;2023-05-02T01:19:54;7.20;;;4.90;;
6378;SDS011;3222;48.858;10.128;2023-05-02T01:22:23;5.07;;;4.60;;
6378;SDS011;3222;48.858;10.128;2023-05-02T01:27:28;7.93;;;6.07;;
6378;SDS011;3222;48.858;10.128;2023-05-02T01:30:01;8.07;;;5.13;;
6378;SDS011;3222;48.858;10.128;2023-05-02T01:32:28;6.10;;;5.20;;
6378;SDS011;3222;48.858;10.128;2023-05-02T01:34:57;5.90;;;5.30;;
6378;SDS011;3222;48.858;10.128;2023-05-02T01:37:25;7.27;;;5.50;;
6378;SDS011;3222;48.858;10.128;2023-05-02T01:39:53;6.33;;;5.20;;
6378;SDS011;3222;48.858;10.128;2023-05-02T01:42:20;6.70;;;4.90;;
6378;SDS011;3222;48.858;10.128;2023-05-02T01:44:49;8.07;;;5.00;;
6378;SDS011;3222;48.858;10.128;2023-05-02T01:47:18;6.40;;;5.13;;
6378;SDS011;3222;48.858;10.128;2023-05-02T01:49:47;5.33;;;4.87;;
6378;SDS011;3222;48.858;10.128;2023-05-02T01:52:13;5.50;;;4.50;;
6378;SDS011;3222;48.858;10.128;2023-05-02T01:54:40;4.97;;;4.37;;
6378;SDS011;3222;48.858;10.128;2023-05-02T01:57:07;10.17;;;5.10;;
6378;SDS011;3222;48.858;10.128;2023-05-02T01:59:34;7.27;;;5.23;;
6378;SDS011;3222;48.858;10.128;2023-05-02T02:02:02;6.33;;;5.20;;
6378;SDS011;3222;48.858;10.128;2023-05-02T02:04:30;7.30;;;5.03;;
6378;SDS011;3222;48.858;10.128;2023-05-02T02:06:57;7.87;;;5.37;;
6378;SDS011;3222;48.858;10.128;2023-05-02T02:09:27;9.77;;;5.50;;
6378;SDS011;3222;48.858;10.128;2023-05-02T02:14:55;7.90;;;5.70;;
6378;SDS011;3222;48.858;10.128;2023-05-02T02:17:29;6.47;;;5.07;;
6378;SDS011;3222;48.858;10.128;2023-05-02T02:20:04;7.17;;;5.63;;
6378;SDS011;3222;48.858;10.128;2023-05-02T02:22:33;5.37;;;4.93;;
6378;SDS011;3222;48.858;10.128;2023-05-02T02:25:02;7.20;;;5.33;;
6378;SDS011;3222;48.858;10.128;2023-05-02T02:27:30;5.37;;;4.83;;
6378;SDS011;3222;48.858;10.128;2023-05-02T02:29:56;7.50;;;4.97;;
6378;SDS011;3222;48.858;10.128;2023-05-02T02:32:22;6.73;;;5.40;;
6378;SDS011;3222;48.858;10.128;2023-05-02T02:34:48;5.10;;;4.60;;
6378;SDS011;3222;48.858;10.128;2023-05-02T02:37:18;5.43;;;4.90;;
6378;SDS011;3222;48.858;10.128;2023-05-02T02:42:36;8.37;;;5.17;;
6378;SDS011;3222;48.858;10.128;2023-05-02T02:51:12;7.37;;;4.97;;
6378;SDS011;3222;48.858;10.128;2023-05-02T02:53:51;8.90;;;5.27;;
6378;SDS011;3222;48.858;10.128;2023-05-02T02:56:26;6.80;;;4.73;;
6378;SDS011;3222;48.858;10.128;2023-05-02T02:58:56;6.53;;;4.70;;
6378;SDS011;3222;48.858;10.128;2023-05-02T03:01:47;6.07;;;5.27;;
6378;SDS011;3222;48.858;10.128;2023-05-02T03:04:17;8.13;;;5.43;;
6378;SDS011;3222;48.858;10.128;2023-05-02T03:06:43;7.90;;;5.40;;
6378;SDS011;3222;48.858;10.128;2023-05-02T03:09:15;7.90;;;5.30;;
6378;SDS011;3222;48.858;10.128;2023-05-02T03:11:43;5.80;;;5.27;;
6378;SDS011;3222;48.858;10.128;2023-05-02T03:14:12;14.50;;;5.77;;
6378;SDS011;3222;48.858;10.128;2023-05-02T03:16:38;8.43;;;5.33;;
6378;SDS011;3222;48.858;10.128;2023-05-02T03:19:09;8.17;;;5.20;;
6378;SDS011;3222;48.858;10.128;2023-05-02T03:21:34;7.47;;;5.13;;
6378;SDS011;3222;48.858;10.128;2023-05-02T03:24:08;6.80;;;5.37;;
6378;SDS011;3222;48.858;10.128;2023-05-02T03:26:33;8.83;;;5.33;;
6378;SDS011;3222;48.858;10.128;2023-05-02T03:28:59;7.40;;;5.70;;
6378;SDS011;3222;48.858;10.128;2023-05-02T03:31:31;7.43;;;5.47;;
6378;SDS011;3222;48.858;10.128;2023-05-02T03:33:57;5.73;;;5.23;;
6378;SDS011;3222;48.858;10.128;2023-05-02T03:36:23;6.97;;;5.40;;
6378;SDS011;3222;48.858;10.128;2023-05-02T03:38:52;7.50;;;5.73;;
6378;SDS011;3222;48.858;10.128;2023-05-02T03:41:18;9.87;;;6.10;;
6378;SDS011;3222;48.858;10.128;2023-05-02T03:43:50;10.67;;;6.20;;
6378;SDS011;3222;48.858;10.128;2023-05-02T03:46:20;8.07;;;5.57;;
6378;SDS011;3222;48.858;10.128;2023-05-02T03:48:45;7.47;;;6.73;;
6378;SDS011;3222;48.858;10.128;2023-05-02T03:51:11;7.73;;;5.73;;
6378;SDS011;3222;48.858;10.128;2023-05-02T03:53:41;8.00;;;6.10;;
6378;SDS011;3222;48.858;10.128;2023-05-02T03:56:07;7.77;;;6.77;;
6378;SDS011;3222;48.858;10.128;2023-05-02T03:58:43;12.57;;;7.47;;
6378;SDS011;3222;48.858;10.128;2023-05-02T04:01:13;8.67;;;7.23;;
6378;SDS011;3222;48.858;10.128;2023-05-02T04:03:41;8.00;;;7.30;;
6378;SDS011;3222;48.858;10.128;2023-05-02T04:06:08;7.20;;;6.47;;
6378;SDS011;3222;48.858;10.128;2023-05-02T04:08:34;10.53;;;6.77;;
6378;SDS011;3222;48.858;10.128;2023-05-02T04:11:01;7.77;;;6.77;;
6378;SDS011;3222;48.858;10.128;2023-05-02T04:13:27;8.13;;;7.37;;
6378;SDS011;3222;48.858;10.128;2023-05-02T04:15:55;8.30;;;7.40;;
6378;SDS011;3222;48.858;10.128;2023-05-02T04:18:22;9.30;;;7.30;;
6378;SDS011;3222;48.858;10.128;2023-05-02T04:20:50;8.67;;;7.77;;
6378;SDS011;3222;48.858;10.128;2023-05-02T04:23:18;9.20;;;8.23;;
6378;SDS011;3222;48.858;10.128;2023-05-02T04:25:49;9.67;;;7.47;;
6378;SDS011;3222;48.858;10.128;2023-05-02T04:28:17;7.87;;;7.10;;
6378;SDS011;3222;48.858;10.128;2023-05-02T04:30:43;8.93;;;7.77;;
6378;SDS011;3222;48.858;10.128;2023-05-02T04:33:10;8.70;;;7.80;;
6378;SDS011;3222;48.858;10.128;2023-05-02T04:35:38;12.43;;;8.13;;
6378;SDS011;3222;48.858;10.128;2023-05-02T04:38:05;12.20;;;8.57;;
6378;SDS011;3222;48.858;10.128;2023-05-02T04:40:32;9.67;;;8.60;;
6378;SDS011;3222;48.858;10.128;2023-05-02T04:43:02;11.80;;;9.13;;
6378;SDS011;3222;48.858;10.128;2023-05-02T04:45:37;9.90;;;8.90;;
6378;SDS011;3222;48.858;10.128;2023-05-02T04:48:06;12.70;;;9.63;;
6378;SDS011;3222;48.858;10.128;2023-05-02T04:50:32;10.43;;;8.97;;
6378;SDS011;3222;48.858;10.128;2023-05-02T04:52:58;9.30;;;8.40;;
6378;SDS011;3222;48.858;10.128;2023-05-02T04:55:25;9.90;;;8.57;;
6378;SDS011;3222;48.858;10.128;2023-05-02T04:57:51;9.77;;;8.77;;
6378;SDS011;3222;48.858;10.128;2023-05-02T05:00:17;10.67;;;9.57;;
6378;SDS011;3222;48.858;10.128;2023-05-02T05:02:43;11.63;;;9.13;;
6378;SDS011;3222;48.858;10.128;2023-05-02T05:05:11;11.20;;;9.23;;
6378;SDS011;3222;48.858;10.128;2023-05-02T05:07:36;10.70;;;9.37;;
6378;SDS011;3222;48.858;10.128;2023-05-02T05:10:02;10.53;;;9.47;;
6378;SDS011;3222;48.858;10.128;2023-05-02T05:12:36;10.47;;;9.37;;
6378;SDS011;3222;48.858;10.128;2023-05-02T05:15:01;10.27;;;8.37;;
6378;SDS011;3222;48.858;10.128;2023-05-02T05:17:28;9.73;;;8.40;;
6378;SDS011;3222;48.858;10.128;2023-05-02T05:19:53;9.70;;;8.70;;
6378;SDS011;3222;48.858;10.128;2023-05-02T05:22:19;8.47;;;7.60;;
6378;SDS011;3222;48.858;10.128;2023-05-02T05:24:52;9.00;;;7.90;;
6378;SDS011;3222;48.858;10.128;2023-05-02T05:27:19;11.53;;;7.80;;
6378;SDS011;3222;48.858;10.128;2023-05-02T05:29:45;9.97;;;8.67;;
6378;SDS011;3222;48.858;10.128;2023-05-02T05:32:11;10.37;;;9.03;;
6378;SDS011;3222;48.858;10.128;2023-05-02T05:34:37;11.10;;;8.97;;
6378;SDS011;3222;48.858;10.128;2023-05-02T05:37:04;12.00;;;9.13;;
6378;SDS011;3222;48.858;10.128;2023-05-02T05:39:30;9.73;;;8.70;;
6378;SDS011;3222;48.858;10.128;2023-05-02T05:41:58;13.03;;;9.57;;
6378;SDS011;3222;48.858;10.128;2023-05-02T05:44:25;11.33;;;8.73;;
6378;SDS011;3222;48.858;10.128;2023-05-02T05:46:50;9.73;;;8.17;;
6378;SDS011;3222;48.858;10.128;2023-05-02T05:49:18;9.77;;;8.87;;
6378;SDS011;3222;48.858;10.128;2023-05-02T05:51:46;8.80;;;7.67;;
6378;SDS011;3222;48.858;10.128;2023-05-02T05:54:12;8.77;;;7.90;;
6378;SDS011;3222;48.858;10.128;2023-05-02T05:56:38;9.00;;;8.10;;
6378;SDS011;3222;48.858;10.128;2023-05-02T05:59:08;8.70;;;7.57;;
6378;SDS011;3222;48.858;10.128;2023-05-02T06:01:34;9.53;;;8.63;;
6378;SDS011;3222;48.858;10.128;2023-05-02T06:04:01;9.60;;;8.70;;
6378;SDS011;3222;48.858;10.128;2023-05-02T06:06:27;9.30;;;8.40;;
6378;SDS011;3222;48.858;10.128;2023-05-02T06:08:53;10.90;;;8.87;;
6378;SDS011;3222;48.858;10.128;2023-05-02T06:11:19;11.60;;;8.90;;
6378;SDS011;3222;48.858;10.128;2023-05-02T06:13:45;10.83;;;9.10;;
6378;SDS011;3222;48.858;10.128;2023-05-02T06:16:10;9.97;;;8.97;;
6378;SDS011;3222;48.858;10.128;2023-05-02T06:18:36;9.50;;;8.40;;
6378;SDS011;3222;48.858;10.128;2023-05-02T06:21:02;10.63;;;8.87;;
6378;SDS011;3222;48.858;10.128;2023-05-02T06:23:29;11.03;;;8.43;;
6378;SDS011;3222;48.858;10.128;2023-05-02T06:25:57;11.37;;;8.43;;
6378;SDS011;3222;48.858;10.128;2023-05-02T06:28:23;10.07;;;9.00;;
6378;SDS011;3222;48.858;10.128;2023-05-02T06:30:59;10.13;;;8.97;;
6378;SDS011;3222;48.858;10.128;2023-05-02T06:33:26;9.03;;;8.13;;
6378;SDS011;3222;48.858;10.128;2023-05-02T06:35:52;9.40;;;8.50;;
6378;SDS011;3222;48.858;10.128;2023-05-02T06:38:18;8.80;;;7.90;;
6378;SDS011;3222;48.858;10.128;2023-05-02T06:40:44;8.87;;;7.97;;
6378;SDS011;3222;48.858;10.128;2023-05-02T06:43:10;9.60;;;8.70;;
6378;SDS011;3222;48.858;10.128;2023-05-02T06:45:36;9.47;;;8.47;;
6378;SDS011;3222;48.858;10.128;2023-05-02T06:48:02;8.77;;;7.97;;
6378;SDS011;3222;48.858;10.128;2023-05-02T06:50:28;8.40;;;7.60;;
6378;SDS011;3222;48.858;10.128;2023-05-02T06:52:54;10.23;;;8.50;;
6378;SDS011;3222;48.858;10.128;2023-05-02T06:55:20;9.53;;;8.50;;
6378;SDS011;3222;48.858;10.128;2023-05-02T06:57:47;8.47;;;7.67;;
6378;SDS011;3222;48.858;10.128;2023-05-02T07:00:14;9.00;;;8.10;;
6378;SDS011;3222;48.858;10.128;2023-05-02T07:02:41;8.90;;;8.00;;
6378;SDS011;3222;48.858;10.128;2023-05-02T07:05:07;9.83;;;8.00;;
6378;SDS011;3222;48.858;10.128;2023-05-02T07:07:33;8.27;;;7.47;;
6378;SDS011;3222;48.858;10.128;2023-05-02T07:09:58;9.13;;;8.23;;
6378;SDS011;3222;48.858;10.128;2023-05-02T07:12:24;8.90;;;8.00;;
6378;SDS011;3222;48.858;10.128;2023-05-02T07:14:50;8.87;;;8.07;;
6378;SDS011;3222;48.858;10.128;2023-05-02T07:17:16;8.23;;;7.43;;
6378;SDS011;3222;48.858;10.128;2023-05-02T07:19:42;10.77;;;8.27;;
6378;SDS011;3222;48.858;10.128;2023-05-02T07:22:08;10.10;;;7.70;;
6378;SDS011;3222;48.858;10.128;2023-05-02T07:24:33;9.73;;;8.40;;
6378;SDS011;3222;48.858;10.128;2023-05-02T07:26:59;9.37;;;8.37;;
6378;SDS011;3222;48.858;10.128;2023-05-02T07:29:25;9.53;;;8.63;;
6378;SDS011;3222;48.858;10.128;2023-05-02T07:31:51;9.03;;;8.13;;
6378;SDS011;3222;48.858;10.128;2023-05-02T07:34:16;14.80;;;10.77;;
6378;SDS011;3222;48.858;10.128;2023-05-02T07:36:42;12.33;;;10.60;;
6378;SDS011;3222;48.858;10.128;2023-05-02T07:39:08;12.67;;;11.27;;
6378;SDS011;3222;48.858;10.128;2023-05-02T07:41:34;14.33;;;12.10;;
6378;SDS011;3222;48.858;10.128;2023-05-02T07:43:59;11.53;;;10.20;;
6378;SDS011;3222;48.858;10.128;2023-05-02T07:46:25;12.53;;;10.40;;
6378;SDS011;3222;48.858;10.128;2023-05-02T07:48:50;10.47;;;9.47;;
6378;SDS011;3222;48.858;10.128;2023-05-02T07:51:18;10.27;;;9.20;;
6378;SDS011;3222;48.858;10.128;2023-05-02T07:53:45;10.30;;;9.20;;
6378;SDS011;3222;48.858;10.128;2023-05-02T07:56:14;11.17;;;8.90;;
6378;SDS011;3222;48.858;10.128;2023-05-02T07:58:39;9.10;;;8.20;;
6378;SDS011;3222;48.858;10.128;2023-05-02T08:01:05;9.33;;;8.43;;
6378;SDS011;3222;48.858;10.128;2023-05-02T08:03:31;10.07;;;9.07;;
6378;SDS011;3222;48.858;10.128;2023-05-02T08:05:56;10.17;;;9.17;;
6378;SDS011;3222;48.858;10.128;2023-05-02T08:08:22;9.57;;;8.67;;
6378;SDS011;3222;48.858;10.128;2023-05-02T08:10:48;10.60;;;9.50;;
6378;SDS011;3222;48.858;10.128;2023-05-02T08:13:15;11.43;;;8.87;;
6378;SDS011;3222;48.858;10.128;2023-05-02T08:15:41;10.00;;;9.10;;
6378;SDS011;3222;48.858;10.128;2023-05-02T08:18:07;9.33;;;8.43;;
6378;SDS011;3222;48.858;10.128;2023-05-02T08:20:32;10.60;;;9.60;;
6378;SDS011;3222;48.858;10.128;2023-05-02T08:22:58;11.63;;;10.20;;
6378;SDS011;3222;48.858;10.128;2023-05-02T08:25:24;11.60;;;9.97;;
6378;SDS011;3222;48.858;10.128;2023-05-02T08:27:49;11.33;;;10.13;;
6378;SDS011;3222;48.858;10.128;2023-05-02T08:30:15;11.43;;;10.23;;
6378;SDS011;3222;48.858;10.128;2023-05-02T08:32:41;10.50;;;9.27;;
6378;SDS011;3222;48.858;10.128;2023-05-02T08:35:07;11.63;;;10.27;;
6378;SDS011;3222;48.858;10.128;2023-05-02T08:37:32;11.37;;;10.27;;
6378;SDS011;3222;48.858;10.128;2023-05-02T08:39:59;11.50;;;10.30;;
6378;SDS011;3222;48.858;10.128;2023-05-02T08:42:24;11.50;;;10.40;;
6378;SDS011;3222;48.858;10.128;2023-05-02T08:44:51;10.67;;;9.57;;
6378;SDS011;3222;48.858;10.128;2023-05-02T08:47:17;11.33;;;10.23;;
6378;SDS011;3222;48.858;10.128;2023-05-02T08:49:43;11.17;;;10.07;;
6378;SDS011;3222;48.858;10.128;2023-05-02T08:52:11;10.97;;;9.57;;
6378;SDS011;3222;48.858;10.128;2023-05-02T08:54:37;12.20;;;9.87;;
6378;SDS011;3222;48.858;10.128;2023-05-02T08:57:04;12.13;;;10.10;;
6378;SDS011;3222;48.858;10.128;2023-05-02T08:59:30;11.53;;;10.33;;
6378;SDS011;3222;48.858;10.128;2023-05-02T09:02:00;11.47;;;10.37;;
6378;SDS011;3222;48.858;10.128;2023-05-02T09:04:39;12.63;;;10.50;;
6378;SDS011;3222;48.858;10.128;2023-05-02T09:07:06;10.67;;;9.67;;
6378;SDS011;3222;48.858;10.128;2023-05-02T09:09:32;12.07;;;10.87;;
6378;SDS011;3222;48.858;10.128;2023-05-02T09:11:58;10.47;;;9.47;;
6378;SDS011;3222;48.858;10.128;2023-05-02T09:14:24;10.67;;;9.57;;
6378;SDS011;3222;48.858;10.128;2023-05-02T09:16:50;10.83;;;9.73;;
6378;SDS011;3222;48.858;10.128;2023-05-02T09:19:23;10.37;;;9.40;;
6378;SDS011;3222;48.858;10.128;2023-05-02T09:21:58;10.63;;;9.53;;
6378;SDS011;3222;48.858;10.128;2023-05-02T09:24:25;9.90;;;9.00;;
6378;SDS011;3222;48.858;10.128;2023-05-02T09:27:03;10.40;;;9.30;;
6378;SDS011;3222;48.858;10.128;2023-05-02T09:29:30;10.00;;;9.00;;
6378;SDS011;3222;48.858;10.128;2023-05-02T09:32:03;11.40;;;10.20;;
6378;SDS011;3222;48.858;10.128;2023-05-02T09:34:29;10.83;;;9.70;;
6378;SDS011;3222;48.858;10.128;2023-05-02T09:36:56;9.90;;;8.90;;
6378;SDS011;3222;48.858;10.128;2023-05-02T09:39:23;10.30;;;9.30;;
6378;SDS011;3222;48.858;10.128;2023-05-02T09:41:50;10.30;;;9.30;;
6378;SDS011;3222;48.858;10.128;2023-05-02T09:44:16;10.07;;;9.07;;
6378;SDS011;3222;48.858;10.128;2023-05-02T09:46:44;10.43;;;9.43;;
6378;SDS011;3222;48.858;10.128;2023-05-02T09:49:14;11.20;;;9.43;;
6378;SDS011;3222;48.858;10.128;2023-05-02T09:51:43;10.97;;;9.87;;
6378;SDS011;3222;48.858;10.128;2023-05-02T09:54:10;10.47;;;9.47;;
6378;SDS011;3222;48.858;10.128;2023-05-02T09:56:58;10.40;;;9.40;;
6378;SDS011;3222;48.858;10.128;2023-05-02T09:59:22;10.97;;;9.70;;
6378;SDS011;3222;48.858;10.128;2023-05-02T10:01:58;10.87;;;9.73;;
6378;SDS011;3222;48.858;10.128;2023-05-02T10:04:26;11.40;;;10.20;;
6378;SDS011;3222;48.858;10.128;2023-05-02T10:06:54;10.27;;;9.27;;
6378;SDS011;3222;48.858;10.128;2023-05-02T10:09:21;10.67;;;9.57;;
6378;SDS011;3222;48.858;10.128;2023-05-02T10:11:54;11.27;;;10.07;;
6378;SDS011;3222;48.858;10.128;2023-05-02T10:14:21;11.30;;;10.20;;
6378;SDS011;3222;48.858;10.128;2023-05-02T10:19:29;12.83;;;10.93;;
6378;SDS011;3222;48.858;10.128;2023-05-02T10:22:06;12.23;;;10.80;;
6378;SDS011;3222;48.858;10.128;2023-05-02T10:24:32;11.03;;;9.87;;
6378;SDS011;3222;48.858;10.128;2023-05-02T10:26:58;11.00;;;10.00;;
6378;SDS011;3222;48.858;10.128;2023-05-02T10:29:29;12.17;;;10.03;;
6378;SDS011;3222;48.858;10.128;2023-05-02T10:31:56;13.13;;;10.23;;
6378;SDS011;3222;48.858;10.128;2023-05-02T10:34:24;12.60;;;11.30;;
6378;SDS011;3222;48.858;10.128;2023-05-02T10:36:51;11.37;;;10.17;;
6378;SDS011;3222;48.858;10.128;2023-05-02T10:39:18;12.07;;;10.77;;
6378;SDS011;3222;48.858;10.128;2023-05-02T10:41:48;11.70;;;10.47;;
6378;SDS011;3222;48.858;10.128;2023-05-02T10:44:24;10.93;;;9.93;;
6378;SDS011;3222;48.858;10.128;2023-05-02T10:47:00;11.17;;;10.07;;
6378;SDS011;3222;48.858;10.128;2023-05-02T10:49:25;12.23;;;11.00;;
6378;SDS011;3222;48.858;10.128;2023-05-02T10:51:53;11.17;;;10.03;;
6378;SDS011;3222;48.858;10.128;2023-05-02T10:54:20;10.60;;;9.47;;
6378;SDS011;3222;48.858;10.128;2023-05-02T11:02:00;10.37;;;9.37;;
6378;SDS011;3222;48.858;10.128;2023-05-02T11:07:30;11.40;;;9.57;;
6378;SDS011;3222;48.858;10.128;2023-05-02T11:10:42;10.47;;;9.10;;
6378;SDS011;3222;48.858;10.128;2023-05-02T11:12:57;9.57;;;8.67;;
6378;SDS011;3222;48.858;10.128;2023-05-02T11:20:32;11.30;;;10.10;;
6378;SDS011;3222;48.858;10.128;2023-05-02T11:22:59;10.77;;;9.50;;
6378;SDS011;3222;48.858;10.128;2023-05-02T11:25:50;10.30;;;9.37;;
6378;SDS011;3222;48.858;10.128;2023-05-02T11:31:03;11.23;;;8.67;;
6378;SDS011;3222;48.858;10.128;2023-05-02T11:33:30;10.73;;;8.30;;
6378;SDS011;3222;48.858;10.128;2023-05-02T11:35:56;9.53;;;8.40;;
6378;SDS011;3222;48.858;10.128;2023-05-02T11:38:23;9.90;;;8.77;;
6378;SDS011;3222;48.858;10.128;2023-05-02T11:40:51;9.83;;;7.97;;
6378;SDS011;3222;48.858;10.128;2023-05-02T11:43:18;9.30;;;8.40;;
6378;SDS011;3222;48.858;10.128;2023-05-02T11:45:45;9.17;;;8.27;;
6378;SDS011;3222;48.858;10.128;2023-05-02T11:48:12;8.90;;;8.00;;
6378;SDS011;3222;48.858;10.128;2023-05-02T11:50:45;10.50;;;8.23;;
6378;SDS011;3222;48.858;10.128;2023-05-02T11:53:19;8.30;;;7.50;;
6378;SDS011;3222;48.858;10.128;2023-05-02T11:55:52;7.83;;;7.10;;
6378;SDS011;3222;48.858;10.128;2023-05-02T11:58:21;8.47;;;7.67;;
6378;SDS011;3222;48.858;10.128;2023-05-02T12:00:48;8.17;;;7.53;;
6378;SDS011;3222;48.858;10.128;2023-05-02T12:03:18;10.77;;;8.07;;
6378;SDS011;3222;48.858;10.128;2023-05-02T12:05:49;9.23;;;7.77;;
6378;SDS011;3222;48.858;10.128;2023-05-02T12:08:33;11.70;;;8.73;;
6378;SDS011;3222;48.858;10.128;2023-05-02T12:10:59;8.83;;;7.87;;
6378;SDS011;3222;48.858;10.128;2023-05-02T12:13:25;8.27;;;7.47;;
6378;SDS011;3222;48.858;10.128;2023-05-02T12:15:51;8.87;;;8.07;;
6378;SDS011;3222;48.858;10.128;2023-05-02T12:18:19;8.83;;;7.57;;
6378;SDS011;3222;48.858;10.128;2023-05-02T12:20:53;8.77;;;7.87;;
6378;SDS011;3222;48.858;10.128;2023-05-02T12:23:20;8.47;;;7.67;;
6378;SDS011;3222;48.858;10.128;2023-05-02T12:25:48;9.10;;;8.20;;
6378;SDS011;3222;48.858;10.128;2023-05-02T12:28:13;9.17;;;8.30;;
6378;SDS011;3222;48.858;10.128;2023-05-02T12:30:41;9.40;;;8.50;;
6378;SDS011;3222;48.858;10.128;2023-05-02T12:33:07;10.13;;;8.53;;
6378;SDS011;3222;48.858;10.128;2023-05-02T12:35:33;8.43;;;7.73;;
6378;SDS011;3222;48.858;10.128;2023-05-02T12:38:10;9.87;;;7.73;;
6378;SDS011;3222;48.858;10.128;2023-05-02T12:40:50;8.23;;;7.27;;
6378;SDS011;3222;48.858;10.128;2023-05-02T12:43:17;9.07;;;8.13;;
6378;SDS011;3222;48.858;10.128;2023-05-02T12:45:44;8.80;;;7.90;;
6378;SDS011;3222;48.858;10.128;2023-05-02T12:48:24;7.40;;;6.70;;
6378;SDS011;3222;48.858;10.128;2023-05-02T12:50:51;8.43;;;7.03;;
6378;SDS011;3222;48.858;10.128;2023-05-02T12:56:08;6.83;;;6.20;;
6378;SDS011;3222;48.858;10.128;2023-05-02T12:58:44;7.40;;;6.70;;
6378;SDS011;3222;48.858;10.128;2023-05-02T13:01:12;7.97;;;7.17;;
6378;SDS011;3222;48.858;10.128;2023-05-02T13:03:39;8.03;;;7.00;;
6378;SDS011;3222;48.858;10.128;2023-05-02T13:06:05;8.10;;;6.67;;
6378;SDS011;3222;48.858;10.128;2023-05-02T13:08:32;7.57;;;6.87;;
6378;SDS011;3222;48.858;10.128;2023-05-02T13:10:59;7.47;;;6.57;;
6378;SDS011;3222;48.858;10.128;2023-05-02T13:13:25;6.70;;;6.10;;
6378;SDS011;3222;48.858;10.128;2023-05-02T13:15:51;7.43;;;6.40;;
6378;SDS011;3222;48.858;10.128;2023-05-02T13:18:16;7.07;;;6.47;;
6378;SDS011;3222;48.858;10.128;2023-05-02T13:20:42;9.47;;;7.53;;
6378;SDS011;3222;48.858;10.128;2023-05-02T13:23:08;11.53;;;9.17;;
6378;SDS011;3222;48.858;10.128;2023-05-02T13:25:34;10.50;;;9.47;;
6378;SDS011;3222;48.858;10.128;2023-05-02T13:27:59;11.90;;;10.40;;
6378;SDS011;3222;48.858;10.128;2023-05-02T13:30:25;10.13;;;9.10;;
6378;SDS011;3222;48.858;10.128;2023-05-02T13:32:51;12.80;;;10.20;;
6378;SDS011;3222;48.858;10.128;2023-05-02T13:35:17;15.17;;;10.17;;
6378;SDS011;3222;48.858;10.128;2023-05-02T13:37:42;11.37;;;10.27;;
6378;SDS011;3222;48.858;10.128;2023-05-02T13:40:08;10.07;;;9.17;;
6378;SDS011;3222;48.858;10.128;2023-05-02T13:42:34;13.43;;;10.90;;
6378;SDS011;3222;48.858;10.128;2023-05-02T13:45:00;10.47;;;9.47;;
6378;SDS011;3222;48.858;10.128;2023-05-02T13:47:30;11.67;;;10.57;;
6378;SDS011;3222;48.858;10.128;2023-05-02T13:49:56;12.87;;;10.93;;
6378;SDS011;3222;48.858;10.128;2023-05-02T13:52:21;14.07;;;11.47;;
6378;SDS011;3222;48.858;10.128;2023-05-02T13:54:47;13.00;;;11.03;;
6378;SDS011;3222;48.858;10.128;2023-05-02T13:57:13;11.90;;;10.80;;
6378;SDS011;3222;48.858;10.128;2023-05-02T13:59:38;12.00;;;10.80;;
6378;SDS011;3222;48.858;10.128;2023-05-02T14:02:04;11.33;;;10.23;;
6378;SDS011;3222;48.858;10.128;2023-05-02T14:04:30;13.27;;;10.73;;
6378;SDS011;3222;48.858;10.128;2023-05-02T14:06:55;16.47;;;10.97;;
6378;SDS011;3222;48.858;10.128;2023-05-02T14:09:21;13.00;;;11.70;;
6378;SDS011;3222;48.858;10.128;2023-05-02T14:11:47;13.83;;;11.67;;
6378;SDS011;3222;48.858;10.128;2023-05-02T14:14:13;13.43;;;11.40;;
6378;SDS011;3222;48.858;10.128;2023-05-02T14:16:38;13.20;;;12.00;;
6378;SDS011;3222;48.858;10.128;2023-05-02T14:19:04;14.47;;;11.53;;
6378;SDS011;3222;48.858;10.128;2023-05-02T14:21:30;14.83;;;12.33;;
6378;SDS011;3222;48.858;10.128;2023-05-02T14:23:56;13.67;;;12.17;;
6378;SDS011;3222;48.858;10.128;2023-05-02T14:26:22;14.70;;;12.27;;
6378;SDS011;3222;48.858;10.128;2023-05-02T14:28:48;13.00;;;11.70;;
6378;SDS011;3222;48.858;10.128;2023-05-02T14:31:14;12.93;;;11.73;;
6378;SDS011;3222;48.858;10.128;2023-05-02T14:33:39;15.37;;;11.90;;
6378;SDS011;3222;48.858;10.128;2023-05-02T14:36:05;13.37;;;12.03;;
6378;SDS011;3222;48.858;10.128;2023-05-02T14:38:31;13.13;;;11.83;;
6378;SDS011;3222;48.858;10.128;2023-05-02T14:40:57;15.57;;;12.83;;
6378;SDS011;3222;48.858;10.128;2023-05-02T14:43:22;15.23;;;12.73;;
6378;SDS011;3222;48.858;10.128;2023-05-02T14:45:48;13.93;;;12.53;;
6378;SDS011;3222;48.858;10.128;2023-05-02T14:48:14;13.80;;;12.13;;
6378;SDS011;3222;48.858;10.128;2023-05-02T14:50:41;14.07;;;11.60;;
6378;SDS011;3222;48.858;10.128;2023-05-02T14:53:07;14.20;;;12.73;;
6378;SDS011;3222;48.858;10.128;2023-05-02T14:55:36;14.50;;;12.10;;
6378;SDS011;3222;48.858;10.128;2023-05-02T14:58:04;13.67;;;12.23;;
6378;SDS011;3222;48.858;10.128;2023-05-02T15:00:33;11.57;;;10.47;;
6378;SDS011;3222;48.858;10.128;2023-05-02T15:03:02;13.27;;;11.90;;
6378;SDS011;3222;48.858;10.128;2023-05-02T15:05:29;12.27;;;11.07;;
6378;SDS011;3222;48.858;10.128;2023-05-02T15:07:54;12.87;;;11.50;;
6378;SDS011;3222;48.858;10.128;2023-05-02T15:10:20;12.07;;;10.97;;
6378;SDS011;3222;48.858;10.128;2023-05-02T15:12:46;13.43;;;12.13;;
6378;SDS011;3222;48.858;10.128;2023-05-02T15:15:18;12.50;;;10.90;;
6378;SDS011;3222;48.858;10.128;2023-05-02T15:17:48;10.40;;;9.40;;
6378;SDS011;3222;48.858;10.128;2023-05-02T15:20:17;9.67;;;8.33;;
6378;SDS011;3222;48.858;10.128;2023-05-02T15:22:43;7.93;;;7.13;;
6378;SDS011;3222;48.858;10.128;2023-05-02T15:25:09;5.97;;;5.27;;
6378;SDS011;3222;48.858;10.128;2023-05-02T15:27:34;5.80;;;5.37;;
6378;SDS011;3222;48.858;10.128;2023-05-02T15:30:00;5.63;;;5.13;;
6378;SDS011;3222;48.858;10.128;2023-05-02T15:32:30;5.03;;;4.50;;
6378;SDS011;3222;48.858;10.128;2023-05-02T15:34:56;4.43;;;4.13;;
6378;SDS011;3222;48.858;10.128;2023-05-02T15:37:22;6.67;;;4.37;;
6378;SDS011;3222;48.858;10.128;2023-05-02T15:39:48;4.23;;;3.80;;